createdAt,value
2022-08-03T00:02:18.104Z,18.20
2022-08-03T00:04:45.537Z,18.10
2022-08-03T00:07:12.766Z,18.00
2022-08-03T00:09:40.012Z,18.00
2022-08-03T00:12:07.434Z,18.00
2022-08-03T00:14:34.810Z,18.00
2022-08-03T00:17:02.111Z,18.00
2022-08-03T00:19:29.483Z,18.00
2022-08-03T00:21:56.723Z,18.00
2022-08-03T00:24:23.964Z,18.10
2022-08-03T00:26:51.220Z,18.20
2022-08-03T00:29:18.472Z,18.10
2022-08-03T00:31:52.218Z,18.10
2022-08-03T00:34:34.590Z,18.10
2022-08-03T00:37:07.573Z,18.20
2022-08-03T00:39:34.826Z,18.20
2022-08-03T00:42:03.581Z,18.20
2022-08-03T00:44:31.944Z,18.00
2022-08-03T00:46:59.188Z,17.90
2022-08-03T00:49:28.031Z,17.90
2022-08-03T00:51:55.366Z,17.90
2022-08-03T00:54:23.063Z,17.90
2022-08-03T00:57:00.088Z,17.80
2022-08-03T00:59:27.990Z,17.70
2022-08-03T01:01:55.296Z,17.70
2022-08-03T01:04:22.571Z,17.50
2022-08-03T01:06:53.381Z,17.50
2022-08-03T01:09:38.425Z,17.50
2022-08-03T01:12:18.997Z,17.60
2022-08-03T01:14:58.781Z,17.50
2022-08-03T01:17:40.298Z,17.50
2022-08-03T01:20:12.349Z,17.50
2022-08-03T01:23:03.522Z,17.50
2022-08-03T01:25:46.948Z,17.50
2022-08-03T01:28:49.134Z,17.50
2022-08-03T01:31:18.959Z,17.50
2022-08-03T01:33:49.484Z,17.50
2022-08-03T01:36:19.492Z,17.50
2022-08-03T01:39:01.151Z,17.40
2022-08-03T01:41:33.464Z,17.40
2022-08-03T01:44:30.182Z,17.50
2022-08-03T01:46:51.213Z,17.50
2022-08-03T01:49:18.563Z,17.50
2022-08-03T01:52:03.317Z,17.50
2022-08-03T01:54:37.048Z,17.50
2022-08-03T01:57:04.463Z,17.50
2022-08-03T01:59:33.754Z,17.50
2022-08-03T02:02:16.065Z,17.50
2022-08-03T02:04:48.478Z,17.50
2022-08-03T02:07:15.708Z,17.30
2022-08-03T02:09:45.068Z,17.20
2022-08-03T02:12:12.599Z,17.10
2022-08-03T02:14:39.947Z,17.10
2022-08-03T02:17:07.776Z,17.10
2022-08-03T02:19:35.824Z,17.10
2022-08-03T02:22:04.727Z,17.10
2022-08-03T02:24:32.180Z,17.00
2022-08-03T02:26:59.409Z,16.90
2022-08-03T02:29:40.243Z,17.00
2022-08-03T02:32:11.278Z,17.00
2022-08-03T02:34:38.530Z,17.00
2022-08-03T02:37:06.000Z,17.10
2022-08-03T02:39:33.466Z,17.10
2022-08-03T02:42:03.441Z,17.00
2022-08-03T02:44:32.474Z,17.00
2022-08-03T02:47:05.314Z,16.90
2022-08-03T02:49:42.153Z,16.90
2022-08-03T02:52:20.170Z,16.80
2022-08-03T02:54:49.039Z,16.60
2022-08-03T02:57:16.304Z,16.70
2022-08-03T02:59:43.521Z,16.60
2022-08-03T03:02:10.865Z,16.60
2022-08-03T03:04:38.294Z,16.50
2022-08-03T03:07:15.415Z,16.50
2022-08-03T03:09:43.321Z,16.40
2022-08-03T03:12:11.420Z,16.30
2022-08-03T03:14:38.663Z,16.40
2022-08-03T03:17:09.978Z,16.50
2022-08-03T03:19:37.806Z,16.50
2022-08-03T03:22:06.246Z,16.50
2022-08-03T03:24:33.444Z,16.60
2022-08-03T03:27:00.676Z,16.60
2022-08-03T03:29:27.902Z,16.60
2022-08-03T03:31:55.428Z,16.60
2022-08-03T03:34:22.662Z,16.60
2022-08-03T03:36:51.083Z,16.60
2022-08-03T03:39:18.311Z,16.60
2022-08-03T03:41:45.538Z,16.60
2022-08-03T03:44:12.774Z,16.70
2022-08-03T03:46:40.000Z,16.60
2022-08-03T03:49:07.457Z,16.60
2022-08-03T03:51:34.858Z,16.60
2022-08-03T03:54:04.144Z,16.70
2022-08-03T03:56:31.450Z,16.70
2022-08-03T03:58:58.702Z,16.80
2022-08-03T04:01:26.607Z,16.80
2022-08-03T04:03:53.844Z,16.90
2022-08-03T04:06:39.596Z,16.90
2022-08-03T04:09:25.192Z,16.90
2022-08-03T04:11:53.891Z,16.90
2022-08-03T04:14:26.536Z,16.90
2022-08-03T04:17:07.357Z,16.90
2022-08-03T04:19:40.599Z,16.90
2022-08-03T04:22:10.165Z,16.90
2022-08-03T04:24:42.127Z,16.90
2022-08-03T04:27:11.367Z,16.90
2022-08-03T04:29:48.119Z,16.80
2022-08-03T04:32:17.079Z,16.80
2022-08-03T04:34:44.534Z,16.80
2022-08-03T04:37:13.152Z,16.70
2022-08-03T04:39:41.266Z,16.80
2022-08-03T04:42:09.242Z,16.80
2022-08-03T04:44:41.008Z,16.90
2022-08-03T04:47:08.543Z,16.80
2022-08-03T04:49:39.279Z,16.90
2022-08-03T04:52:07.878Z,17.00
2022-08-03T04:54:42.539Z,17.20
2022-08-03T04:57:22.192Z,17.30
2022-08-03T05:00:01.035Z,17.50
2022-08-03T05:02:29.155Z,17.60
2022-08-03T05:04:56.374Z,17.70
2022-08-03T05:07:25.190Z,17.80
2022-08-03T05:09:57.543Z,17.90
2022-08-03T05:12:32.794Z,18.00
2022-08-03T05:15:01.136Z,18.00
2022-08-03T05:17:28.635Z,18.20
2022-08-03T05:19:55.947Z,18.30
2022-08-03T05:22:23.563Z,18.40
2022-08-03T05:24:50.808Z,18.50
2022-08-03T05:27:19.427Z,18.60
2022-08-03T05:29:47.171Z,18.70
2022-08-03T05:32:14.686Z,18.60
2022-08-03T05:34:42.259Z,18.70
2022-08-03T05:37:09.613Z,18.80
2022-08-03T05:39:36.919Z,19.00
2022-08-03T05:42:04.307Z,19.10
2022-08-03T05:44:32.106Z,19.20
2022-08-03T05:46:59.521Z,19.30
2022-08-03T05:49:26.866Z,19.30
2022-08-03T05:52:00.071Z,19.50
2022-08-03T05:54:57.206Z,19.60
2022-08-03T05:57:27.923Z,19.80
2022-08-03T05:59:58.256Z,19.80
2022-08-03T06:02:27.048Z,19.90
2022-08-03T06:04:54.561Z,20.10
2022-08-03T06:07:21.815Z,20.20
2022-08-03T06:10:35.229Z,20.30
2022-08-03T06:12:36.442Z,20.50
2022-08-03T06:15:04.623Z,20.60
2022-08-03T06:17:37.728Z,20.60
2022-08-03T06:20:06.211Z,20.70
2022-08-03T06:22:33.673Z,20.80
2022-08-03T06:25:05.056Z,20.90
2022-08-03T06:27:38.049Z,21.00
2022-08-03T06:30:06.364Z,21.20
2022-08-03T06:32:33.761Z,21.30
2022-08-03T06:35:01.153Z,21.50
2022-08-03T06:37:28.830Z,21.60
2022-08-03T06:39:56.120Z,21.60
2022-08-03T06:42:23.322Z,21.70
2022-08-03T06:44:52.530Z,21.80
2022-08-03T06:47:19.790Z,22.00
2022-08-03T06:50:12.793Z,22.10
2022-08-03T06:52:37.847Z,22.20
2022-08-03T06:55:06.885Z,22.30
2022-08-03T06:57:34.140Z,22.40
2022-08-03T07:00:07.736Z,22.50
2022-08-03T07:02:39.796Z,22.60
2022-08-03T07:05:08.018Z,22.80
2022-08-03T07:07:35.275Z,23.00
2022-08-03T07:10:02.646Z,23.10
2022-08-03T07:12:30.156Z,23.20
2022-08-03T07:15:01.308Z,23.20
2022-08-03T07:17:30.331Z,23.40
2022-08-03T07:19:57.900Z,23.50
2022-08-03T07:22:25.191Z,23.60
2022-08-03T07:24:52.427Z,23.50
2022-08-03T07:27:19.679Z,23.60
2022-08-03T07:29:46.903Z,23.80
2022-08-03T07:32:14.263Z,24.00
2022-08-03T07:34:41.666Z,24.00
2022-08-03T07:37:08.911Z,24.10
2022-08-03T07:39:36.144Z,24.20
2022-08-03T07:42:03.529Z,24.30
2022-08-03T07:44:30.756Z,24.30
2022-08-03T07:46:58.000Z,24.50
2022-08-03T07:49:25.547Z,24.70
2022-08-03T07:52:11.495Z,24.90
2022-08-03T07:54:38.950Z,25.10
2022-08-03T07:57:06.289Z,25.00
2022-08-03T08:00:01.454Z,25.20
2022-08-03T08:02:22.432Z,25.30
2022-08-03T08:04:49.684Z,25.40
2022-08-03T08:07:16.951Z,25.60
2022-08-03T08:09:45.581Z,25.70
2022-08-03T08:12:15.192Z,25.80
2022-08-03T08:14:45.766Z,25.90
2022-08-03T08:17:13.892Z,26.00
2022-08-03T08:19:45.970Z,26.10
2022-08-03T08:22:23.495Z,26.20
2022-08-03T08:24:59.359Z,26.30
2022-08-03T08:27:26.726Z,26.30
2022-08-03T08:29:55.207Z,26.50
2022-08-03T08:32:23.691Z,26.50
2022-08-03T08:34:50.967Z,26.60
2022-08-03T08:37:18.287Z,26.60
2022-08-03T08:39:45.550Z,26.60
2022-08-03T08:42:12.880Z,26.60
2022-08-03T08:44:40.568Z,26.70
2022-08-03T08:47:07.828Z,26.60
2022-08-03T08:49:36.304Z,26.80
2022-08-03T08:52:04.032Z,26.80
2022-08-03T08:54:52.208Z,26.90
2022-08-03T08:57:41.553Z,26.90
2022-08-03T09:00:10.242Z,27.00
2022-08-03T09:02:37.537Z,27.20
2022-08-03T09:05:07.711Z,27.30
2022-08-03T09:07:35.210Z,27.40
2022-08-03T09:10:12.646Z,27.50
2022-08-03T09:12:44.250Z,27.60
2022-08-03T09:15:21.900Z,27.70
2022-08-03T09:17:51.282Z,27.80
2022-08-03T09:20:19.451Z,27.70
2022-08-03T09:22:57.251Z,27.70
2022-08-03T09:25:33.085Z,27.90
2022-08-03T09:28:06.602Z,28.00
2022-08-03T09:30:35.357Z,27.90
2022-08-03T09:33:03.983Z,28.00
2022-08-03T09:38:23.947Z,28.10
2022-08-03T09:40:53.834Z,28.40
2022-08-03T09:43:27.417Z,28.40
2022-08-03T09:46:05.669Z,28.60
2022-08-03T09:48:37.214Z,28.60
2022-08-03T09:51:14.371Z,28.70
2022-08-03T09:53:58.608Z,28.60
2022-08-03T09:56:40.612Z,28.70
2022-08-03T09:59:08.235Z,28.60
2022-08-03T10:01:35.945Z,28.70
2022-08-03T10:04:05.144Z,28.90
2022-08-03T10:06:32.692Z,29.10
2022-08-03T10:09:09.479Z,29.10
2022-08-03T10:11:41.396Z,29.00
2022-08-03T10:14:19.494Z,29.00
2022-08-03T10:16:47.511Z,29.00
2022-08-03T10:19:15.568Z,29.20
2022-08-03T10:21:47.981Z,29.40
2022-08-03T10:24:15.660Z,29.20
2022-08-03T10:26:49.767Z,29.10
2022-08-03T10:29:21.695Z,29.20
2022-08-03T10:31:57.834Z,29.20
2022-08-03T10:34:35.366Z,29.20
2022-08-03T10:37:03.119Z,29.40
2022-08-03T10:39:30.640Z,29.50
2022-08-03T10:41:59.814Z,29.70
2022-08-03T10:44:33.636Z,29.80
2022-08-03T10:47:01.011Z,29.80
2022-08-03T10:49:34.213Z,29.90
2022-08-03T10:52:10.446Z,29.90
2022-08-03T10:55:01.134Z,29.90
2022-08-03T10:57:43.418Z,29.80
2022-08-03T11:00:14.157Z,29.80
2022-08-03T11:03:04.283Z,30.00
2022-08-03T11:05:35.876Z,30.10
2022-08-03T11:08:28.738Z,29.90
2022-08-03T11:11:18.761Z,29.80
2022-08-03T11:14:05.263Z,29.60
2022-08-03T11:16:38.060Z,29.80
2022-08-03T11:19:07.046Z,30.00
2022-08-03T11:21:53.375Z,30.20
2022-08-03T11:24:47.118Z,30.20
2022-08-03T11:27:18.898Z,30.50
2022-08-03T11:29:56.619Z,30.50
2022-08-03T11:32:46.887Z,30.70
2022-08-03T11:35:30.099Z,30.70
2022-08-03T11:38:03.345Z,30.80
2022-08-03T11:40:39.497Z,31.00
2022-08-03T11:43:07.503Z,31.00
2022-08-03T11:45:35.444Z,31.00
2022-08-03T11:48:23.042Z,31.00
2022-08-03T11:50:50.279Z,31.00
2022-08-03T11:53:18.262Z,31.00
2022-08-03T11:55:48.853Z,31.00
2022-08-03T11:59:19.067Z,30.90
2022-08-03T12:01:08.108Z,30.80
2022-08-03T12:03:35.519Z,30.70
2022-08-03T12:06:04.394Z,30.80
2022-08-03T12:08:33.124Z,30.50
2022-08-03T12:11:02.246Z,30.50
2022-08-03T12:14:27.080Z,30.70
2022-08-03T12:16:30.189Z,30.80
2022-08-03T12:19:02.343Z,31.00
2022-08-03T12:21:29.707Z,31.20
2022-08-03T12:24:04.171Z,31.40
2022-08-03T12:26:58.351Z,31.50
2022-08-03T12:29:26.431Z,31.50
2022-08-03T12:31:53.674Z,31.60
2022-08-03T12:34:20.965Z,31.50
2022-08-03T12:36:52.816Z,31.40
2022-08-03T12:39:23.669Z,31.60
2022-08-03T12:41:53.562Z,31.80
2022-08-03T12:44:35.734Z,31.90
2022-08-03T12:47:03.690Z,31.70
2022-08-03T12:49:48.287Z,31.50
2022-08-03T12:52:16.307Z,31.60
2022-08-03T12:54:44.170Z,31.80
2022-08-03T12:57:15.604Z,31.90
2022-08-03T12:59:53.285Z,32.00
2022-08-03T13:02:25.527Z,32.10
2022-08-03T13:04:54.307Z,32.20
2022-08-03T13:07:22.199Z,32.30
2022-08-03T13:09:54.433Z,32.40
2022-08-03T13:12:28.593Z,32.40
2022-08-03T13:14:57.055Z,32.50
2022-08-03T13:17:24.694Z,32.80
2022-08-03T13:19:52.489Z,32.80
2022-08-03T13:22:24.617Z,32.90
2022-08-03T13:24:53.311Z,32.60
2022-08-03T13:28:02.149Z,32.60
2022-08-03T13:30:08.782Z,32.80
2022-08-03T13:32:36.256Z,32.90
2022-08-03T13:35:03.794Z,33.00
2022-08-03T13:37:32.291Z,32.70
2022-08-03T13:40:03.064Z,32.60
2022-08-03T13:42:32.673Z,32.60
2022-08-03T13:45:00.312Z,32.70
2022-08-03T13:47:28.023Z,32.70
2022-08-03T13:50:01.629Z,32.80
2022-08-03T13:52:30.259Z,32.80
2022-08-03T13:54:57.447Z,32.80
2022-08-03T13:58:04.970Z,32.90
2022-08-03T14:00:12.397Z,32.80
2022-08-03T14:02:39.750Z,32.80
2022-08-03T14:05:08.116Z,32.60
2022-08-03T14:07:35.363Z,32.60
2022-08-03T14:10:02.667Z,32.40
2022-08-03T14:12:29.972Z,32.50
2022-08-03T14:15:01.121Z,32.30
2022-08-03T14:17:42.293Z,32.10
2022-08-03T14:20:38.925Z,32.10
2022-08-03T14:23:03.242Z,32.10
2022-08-03T14:25:31.627Z,32.20
2022-08-03T14:28:11.247Z,32.40
2022-08-03T14:30:38.523Z,32.50
2022-08-03T14:33:05.718Z,32.70
2022-08-03T14:35:32.979Z,32.60
2022-08-03T14:38:00.190Z,32.70
2022-08-03T14:40:27.420Z,32.70
2022-08-03T14:42:55.244Z,32.60
2022-08-03T14:45:22.521Z,32.80
2022-08-03T14:50:33.784Z,32.80
2022-08-03T14:50:43.220Z,32.80
2022-08-03T14:53:14.579Z,33.00
2022-08-03T14:55:50.353Z,33.10
2022-08-03T14:58:21.487Z,33.10
2022-08-03T15:00:49.846Z,33.00
2022-08-03T15:03:20.253Z,33.00
2022-08-03T15:05:47.958Z,33.00
2022-08-03T15:08:15.436Z,33.00
2022-08-03T15:10:45.251Z,32.70
2022-08-03T15:13:13.250Z,32.70
2022-08-03T15:15:40.996Z,32.60
2022-08-03T15:18:08.443Z,32.50
2022-08-03T15:20:44.384Z,32.60
2022-08-03T15:23:13.267Z,32.30
2022-08-03T15:26:28.551Z,32.10
2022-08-03T15:28:27.823Z,32.20
2022-08-03T15:30:55.180Z,32.20
2022-08-03T15:33:22.456Z,32.30
2022-08-03T15:35:49.887Z,32.30
2022-08-03T15:38:17.535Z,32.10
2022-08-03T15:40:45.076Z,32.20
2022-08-03T15:43:12.294Z,32.10
2022-08-03T15:45:40.556Z,32.10
2022-08-03T15:48:09.249Z,32.10
2022-08-03T15:50:36.476Z,32.10
2022-08-03T15:53:04.144Z,32.00
2022-08-03T15:55:31.627Z,31.80
2022-08-03T15:59:11.423Z,31.60
2022-08-03T16:00:46.151Z,31.50
2022-08-03T16:03:13.755Z,31.60
2022-08-03T16:05:41.002Z,31.60
2022-08-03T16:08:13.581Z,31.60
2022-08-03T16:10:41.281Z,31.50
2022-08-03T16:13:08.647Z,31.70
2022-08-03T16:15:38.467Z,31.70
2022-08-03T16:18:06.765Z,31.80
2022-08-03T16:20:35.339Z,31.80
2022-08-03T16:23:10.315Z,31.90
2022-08-03T16:25:39.938Z,31.80
2022-08-03T16:28:13.170Z,31.70
2022-08-03T16:30:42.074Z,31.80
2022-08-03T16:33:09.325Z,31.80
2022-08-03T16:35:36.635Z,32.00
2022-08-03T16:38:09.624Z,32.20
2022-08-03T16:40:37.740Z,32.60
2022-08-03T16:43:18.108Z,32.80
2022-08-03T16:45:46.948Z,33.00
2022-08-03T16:48:15.288Z,33.10
2022-08-03T16:50:42.609Z,32.90
2022-08-03T16:53:12.811Z,32.80
2022-08-03T16:55:53.522Z,32.80
2022-08-03T16:58:34.585Z,32.70
2022-08-03T17:01:21.972Z,32.50
2022-08-03T17:04:01.533Z,32.10
2022-08-03T17:06:34.213Z,32.40
2022-08-03T17:09:09.776Z,32.40
2022-08-03T17:11:47.354Z,32.30
2022-08-03T17:14:21.808Z,32.20
2022-08-03T17:16:53.022Z,32.00
2022-08-03T17:19:23.211Z,31.90
2022-08-03T17:22:04.169Z,31.80
2022-08-03T17:24:41.142Z,31.70
2022-08-03T17:28:41.655Z,31.60
2022-08-03T17:30:03.764Z,31.60
2022-08-03T17:32:33.095Z,31.40
2022-08-03T17:35:01.406Z,31.40
2022-08-03T17:37:57.656Z,31.30
2022-08-03T17:40:17.449Z,31.10
2022-08-03T17:42:45.708Z,30.90
2022-08-03T17:45:18.878Z,30.80
2022-08-03T17:47:46.191Z,30.60
2022-08-03T17:50:33.929Z,30.50
2022-08-03T17:53:15.665Z,30.30
2022-08-03T17:56:04.736Z,30.20
2022-08-03T17:58:42.333Z,30.00
2022-08-03T18:02:00.458Z,29.80
2022-08-03T18:04:21.720Z,29.70
2022-08-03T18:06:58.798Z,29.40
2022-08-03T18:10:06.853Z,29.40
2022-08-03T18:12:25.693Z,29.20
2022-08-03T18:15:01.457Z,29.10
2022-08-03T18:17:54.978Z,28.90
2022-08-03T18:20:34.271Z,28.90
2022-08-03T18:23:08.606Z,28.80
2022-08-03T18:25:45.606Z,28.80
2022-08-03T18:28:19.124Z,28.70
2022-08-03T18:30:53.603Z,28.60
2022-08-03T18:34:17.565Z,28.60
2022-08-03T18:36:11.501Z,28.50
2022-08-03T18:38:50.907Z,28.40
2022-08-03T18:41:26.451Z,28.30
2022-08-03T18:44:08.520Z,28.20
2022-08-03T18:47:01.551Z,28.10
2022-08-03T18:49:59.582Z,28.10
2022-08-03T18:52:37.348Z,27.90
2022-08-03T18:55:33.674Z,27.80
2022-08-03T18:58:15.753Z,27.70
2022-08-03T19:00:57.021Z,27.70
2022-08-03T19:03:25.296Z,27.60
2022-08-03T19:06:17.502Z,27.50
2022-08-03T19:08:50.247Z,27.40
2022-08-03T19:12:13.363Z,27.20
2022-08-03T19:14:39.245Z,27.10
2022-08-03T19:17:09.923Z,26.90
2022-08-03T19:22:27.214Z,26.80
2022-08-03T19:24:55.416Z,26.70
2022-08-03T19:27:27.064Z,26.60
2022-08-03T19:29:58.907Z,26.50
2022-08-03T19:32:28.876Z,26.40
2022-08-03T19:34:56.804Z,26.30
2022-08-03T19:37:27.562Z,26.20
2022-08-03T19:40:10.817Z,26.10
2022-08-03T19:42:56.283Z,26.10
2022-08-03T19:46:04.542Z,25.90
2022-08-03T19:48:28.856Z,25.90
2022-08-03T19:50:56.903Z,25.80
2022-08-03T19:53:35.181Z,25.70
2022-08-03T19:56:06.840Z,25.50
2022-08-03T19:58:34.361Z,25.50
2022-08-03T20:01:19.302Z,25.30
2022-08-03T20:03:48.061Z,25.40
2022-08-03T20:06:16.905Z,25.30
2022-08-03T20:08:44.516Z,25.30
2022-08-03T20:11:11.821Z,25.30
2022-08-03T20:13:39.345Z,25.20
2022-08-03T20:16:06.643Z,25.10
2022-08-03T20:18:39.294Z,25.00
2022-08-03T20:21:14.998Z,25.00
2022-08-03T20:24:01.831Z,24.90
2022-08-03T20:26:30.497Z,24.90
2022-08-03T20:29:09.201Z,24.80
2022-08-03T20:31:37.566Z,24.80
2022-08-03T20:34:05.867Z,24.70
2022-08-03T20:36:33.208Z,24.70
2022-08-03T20:39:00.721Z,24.70
2022-08-03T20:41:28.072Z,24.60
2022-08-03T20:43:58.806Z,24.60
2022-08-03T20:46:30.039Z,24.60
2022-08-03T20:49:04.341Z,24.60
2022-08-03T20:51:49.034Z,24.60
2022-08-03T20:54:29.965Z,24.50
2022-08-03T20:57:04.160Z,24.50
2022-08-03T20:59:50.675Z,24.40
2022-08-03T21:02:29.483Z,24.50
2022-08-03T21:05:03.672Z,24.40
2022-08-03T21:08:05.548Z,24.40
2022-08-03T21:10:32.420Z,24.30
2022-08-03T21:13:10.907Z,26.80
2022-08-03T21:13:14.974Z,24.30
2022-08-03T21:16:06.246Z,24.30
2022-08-03T21:18:30.525Z,24.20
2022-08-03T21:20:59.179Z,24.20
2022-08-03T21:23:39.994Z,24.10
2022-08-03T21:26:13.780Z,24.00
2022-08-03T21:28:41.089Z,23.90
2022-08-03T21:31:09.040Z,23.90
2022-08-03T21:33:36.299Z,23.80
2022-08-03T21:36:03.790Z,23.60
2022-08-03T21:38:32.336Z,23.60
2022-08-03T21:40:59.711Z,23.60
2022-08-03T21:43:27.117Z,23.60
2022-08-03T21:46:02.605Z,23.50
2022-08-03T21:48:35.249Z,23.50
2022-08-03T21:51:02.886Z,23.40
2022-08-03T21:54:02.364Z,23.40
2022-08-03T21:56:20.168Z,23.40
2022-08-03T21:58:51.858Z,23.30
2022-08-03T22:01:21.832Z,23.20
2022-08-03T22:03:52.849Z,23.20
2022-08-03T22:06:22.192Z,23.00
2022-08-03T22:08:54.189Z,22.90
2022-08-03T22:11:21.458Z,22.90
2022-08-03T22:13:48.784Z,22.80
2022-08-03T22:16:16.104Z,22.80
2022-08-03T22:18:44.512Z,22.70
2022-08-03T22:21:13.060Z,22.50
2022-08-03T22:23:48.818Z,22.50
2022-08-03T22:26:32.608Z,22.30
2022-08-03T22:29:04.740Z,22.30
2022-08-03T22:31:57.705Z,22.30
2022-08-03T22:34:26.352Z,22.30
2022-08-03T22:36:57.266Z,22.30
2022-08-03T22:39:28.839Z,22.20
2022-08-03T22:41:59.458Z,22.10
2022-08-03T22:44:27.243Z,22.10
2022-08-03T22:46:54.532Z,21.90
2022-08-03T22:49:21.780Z,21.80
2022-08-03T22:51:50.614Z,21.80
2022-08-03T22:54:17.860Z,21.70
2022-08-03T22:56:47.839Z,21.60
2022-08-03T22:59:40.976Z,21.50
2022-08-03T23:02:20.106Z,21.50
2022-08-03T23:04:59.503Z,21.40
2022-08-03T23:07:37.243Z,21.40
2022-08-03T23:10:06.715Z,21.30
2022-08-03T23:12:37.860Z,21.20
2022-08-03T23:15:07.297Z,21.20
2022-08-03T23:17:34.744Z,21.10
2022-08-03T23:20:21.962Z,21.00
2022-08-03T23:22:54.471Z,21.00
2022-08-03T23:25:22.018Z,20.90
2022-08-03T23:28:04.960Z,20.90
2022-08-03T23:30:34.726Z,20.80
2022-08-03T23:33:01.984Z,20.70
2022-08-03T23:36:28.778Z,20.80
2022-08-03T23:38:35.932Z,20.70
2022-08-03T23:41:04.028Z,20.70
2022-08-03T23:43:50.909Z,20.60
2022-08-03T23:46:19.834Z,20.60
2022-08-03T23:48:47.154Z,20.60
2022-08-03T23:51:34.548Z,20.50
2022-08-03T23:54:31.876Z,20.50
2022-08-03T23:57:20.894Z,20.40
